createdAt,value
2022-08-23T00:01:31.301Z,299.17
2022-08-23T00:04:02.863Z,279.30
2022-08-23T00:06:30.902Z,288.77
2022-08-23T00:08:59.105Z,296.58
2022-08-23T00:11:33.988Z,291.55
2022-08-23T00:14:06.615Z,334.30
2022-08-23T00:16:33.423Z,356.95
2022-08-23T00:19:00.179Z,554.70
2022-08-23T00:21:29.158Z,660.20
2022-08-23T00:23:56.416Z,576.53
2022-08-23T00:26:23.526Z,316.25
2022-08-23T00:28:50.479Z,321.63
2022-08-23T00:31:20.074Z,313.95
2022-08-23T00:33:47.036Z,313.20
2022-08-23T00:36:14.995Z,336.00
2022-08-23T00:38:42.083Z,333.13
2022-08-23T00:41:09.254Z,549.67
2022-08-23T00:43:59.500Z,566.22
2022-08-23T00:47:10.068Z,710.83
2022-08-23T00:49:39.700Z,962.85
2022-08-23T00:52:32.439Z,1288.33
2022-08-23T00:55:00.338Z,1256.22
2022-08-23T00:57:28.853Z,1236.53
2022-08-23T00:59:56.748Z,1288.80
2022-08-23T01:02:24.931Z,1298.43
2022-08-23T01:04:58.169Z,732.20
2022-08-23T01:07:46.893Z,1290.43
2022-08-23T01:10:42.168Z,1289.30
2022-08-23T01:13:21.213Z,847.88
2022-08-23T01:15:56.031Z,516.08
2022-08-23T01:18:26.755Z,522.85
2022-08-23T01:21:16.242Z,543.13
2022-08-23T01:23:53.508Z,520.60
2022-08-23T01:26:22.542Z,542.60
2022-08-23T01:28:51.445Z,547.83
2022-08-23T01:31:21.005Z,533.70
2022-08-23T01:33:55.851Z,552.25
2022-08-23T01:36:23.696Z,512.07
2022-08-23T01:38:52.882Z,494.13
2022-08-23T01:41:20.277Z,535.05
2022-08-23T01:43:48.744Z,544.75
2022-08-23T01:46:20.813Z,543.42
2022-08-23T01:48:51.291Z,528.85
2022-08-23T01:51:20.126Z,550.27
2022-08-23T01:53:47.457Z,522.72
2022-08-23T01:56:20.190Z,535.03
2022-08-23T01:59:01.666Z,518.70
2022-08-23T02:01:34.832Z,497.33
2022-08-23T02:04:04.766Z,540.17
2022-08-23T02:06:33.254Z,551.10
2022-08-23T02:09:03.954Z,415.65
2022-08-23T02:11:38.670Z,419.27
2022-08-23T02:14:11.987Z,409.02
2022-08-23T02:16:58.075Z,359.80
2022-08-23T02:19:37.817Z,365.00
2022-08-23T02:22:07.375Z,363.90
2022-08-23T02:24:38.874Z,376.05
2022-08-23T02:27:06.200Z,380.10
2022-08-23T02:29:39.797Z,421.20
2022-08-23T02:32:10.458Z,405.85
2022-08-23T02:34:39.562Z,364.15
2022-08-23T02:37:09.061Z,502.75
2022-08-23T02:39:36.559Z,317.38
2022-08-23T02:42:07.124Z,412.65
2022-08-23T02:44:38.331Z,413.92
2022-08-23T02:47:07.583Z,409.65
2022-08-23T02:49:35.775Z,407.15
2022-08-23T02:52:06.290Z,395.73
2022-08-23T02:54:35.536Z,429.90
2022-08-23T02:57:04.531Z,379.70
2022-08-23T02:59:33.386Z,389.05
2022-08-23T03:02:00.398Z,351.83
2022-08-23T03:04:32.623Z,339.90
2022-08-23T03:06:59.466Z,344.50
2022-08-23T03:09:27.810Z,376.83
2022-08-23T03:11:54.652Z,338.17
2022-08-23T03:14:22.226Z,319.15
2022-08-23T03:16:49.510Z,311.25
2022-08-23T03:19:17.119Z,310.20
2022-08-23T03:21:45.120Z,355.45
2022-08-23T03:24:12.858Z,341.58
2022-08-23T03:26:45.953Z,297.95
2022-08-23T03:29:15.540Z,301.50
2022-08-23T03:32:02.035Z,327.42
2022-08-23T03:34:32.651Z,309.00
2022-08-23T03:37:00.915Z,305.58
2022-08-23T03:39:28.678Z,309.77
2022-08-23T03:41:57.846Z,299.63
2022-08-23T03:44:25.588Z,281.55
2022-08-23T03:46:52.385Z,284.92
2022-08-23T03:49:19.999Z,262.45
2022-08-23T03:51:56.088Z,244.93
2022-08-23T03:54:23.199Z,247.40
2022-08-23T03:56:55.942Z,241.48
2022-08-23T03:59:23.984Z,252.15
2022-08-23T04:01:50.831Z,257.60
2022-08-23T04:04:17.792Z,211.25
2022-08-23T04:07:07.986Z,197.93
2022-08-23T04:09:36.214Z,217.55
2022-08-23T04:12:03.453Z,219.55
2022-08-23T04:14:38.870Z,223.55
2022-08-23T04:17:05.962Z,208.18
2022-08-23T04:19:32.751Z,229.82
2022-08-23T04:22:03.706Z,240.95
2022-08-23T04:24:37.610Z,246.43
2022-08-23T04:27:05.140Z,221.83
2022-08-23T04:29:34.153Z,221.82
2022-08-23T04:32:05.419Z,231.98
2022-08-23T04:34:38.138Z,220.32
2022-08-23T04:37:10.202Z,224.15
2022-08-23T04:39:57.283Z,219.10
2022-08-23T04:42:26.802Z,242.25
2022-08-23T04:44:53.830Z,227.00
2022-08-23T04:47:20.958Z,225.23
2022-08-23T04:49:49.466Z,238.35
2022-08-23T04:52:19.371Z,235.17
2022-08-23T04:54:47.371Z,213.88
2022-08-23T04:57:35.863Z,184.73
2022-08-23T05:00:04.578Z,192.88
2022-08-23T05:02:31.700Z,189.95
2022-08-23T05:04:58.488Z,198.68
2022-08-23T05:07:31.904Z,173.05
2022-08-23T05:10:16.236Z,151.95
2022-08-23T05:12:48.500Z,139.32
2022-08-23T05:15:16.968Z,130.20
2022-08-23T05:17:47.003Z,144.38
2022-08-23T05:20:14.016Z,135.40
2022-08-23T05:22:42.719Z,145.73
2022-08-23T05:25:21.335Z,146.02
2022-08-23T05:27:49.291Z,135.93
2022-08-23T05:30:16.141Z,148.95
2022-08-23T05:32:43.868Z,161.15
2022-08-23T05:35:12.719Z,150.60
2022-08-23T05:37:42.802Z,144.10
2022-08-23T05:40:11.029Z,171.52
2022-08-23T05:42:47.204Z,108.20
2022-08-23T05:45:15.580Z,88.47
2022-08-23T05:47:47.451Z,79.43
2022-08-23T05:50:25.818Z,66.75
2022-08-23T05:52:52.723Z,109.15
2022-08-23T05:55:21.885Z,179.20
2022-08-23T05:58:09.930Z,113.57
2022-08-23T06:00:39.257Z,115.45
2022-08-23T06:03:07.442Z,119.63
2022-08-23T06:05:37.834Z,122.32
2022-08-23T06:08:15.415Z,153.18
2022-08-23T06:10:42.617Z,125.18
2022-08-23T06:13:30.289Z,134.85
2022-08-23T06:15:58.753Z,131.93
2022-08-23T06:18:26.958Z,147.68
2022-08-23T06:21:06.490Z,130.27
2022-08-23T06:23:43.315Z,127.57
2022-08-23T06:26:19.698Z,141.68
2022-08-23T06:28:50.498Z,157.63
2022-08-23T06:31:40.552Z,118.45
2022-08-23T06:34:18.554Z,154.35
2022-08-23T06:37:14.342Z,113.93
2022-08-23T06:40:08.381Z,119.75
2022-08-23T06:42:47.311Z,159.63
2022-08-23T06:45:19.147Z,126.93
2022-08-23T06:47:48.805Z,136.57
2022-08-23T06:50:15.617Z,151.10
2022-08-23T06:53:07.023Z,162.23
2022-08-23T06:55:43.103Z,134.30
2022-08-23T06:58:17.731Z,158.60
2022-08-23T07:01:44.023Z,161.38
2022-08-23T07:04:18.551Z,177.50
2022-08-23T07:07:11.340Z,132.23
2022-08-23T07:09:39.660Z,155.10
2022-08-23T07:12:07.354Z,156.18
2022-08-23T07:14:37.954Z,135.88
2022-08-23T07:17:05.526Z,132.27
2022-08-23T07:19:34.570Z,153.23
2022-08-23T07:22:02.791Z,145.00
2022-08-23T07:24:33.511Z,127.90
2022-08-23T07:27:07.080Z,145.18
2022-08-23T07:29:37.739Z,142.30
2022-08-23T07:32:04.928Z,128.57
2022-08-23T07:34:33.103Z,136.97
2022-08-23T07:37:01.430Z,142.07
2022-08-23T07:39:31.582Z,138.85
2022-08-23T07:42:01.423Z,137.40
2022-08-23T07:44:48.289Z,143.55
2022-08-23T07:47:21.294Z,123.20
2022-08-23T07:49:48.265Z,110.50
2022-08-23T07:52:15.283Z,116.15
2022-08-23T07:54:48.266Z,123.18
2022-08-23T07:57:35.074Z,121.22
2022-08-23T08:00:11.919Z,112.55
2022-08-23T08:02:55.476Z,111.30
2022-08-23T08:05:32.567Z,135.10
2022-08-23T08:07:59.921Z,124.47
2022-08-23T08:10:27.960Z,123.15
2022-08-23T08:12:55.699Z,130.82
2022-08-23T08:15:24.598Z,106.25
2022-08-23T08:18:00.181Z,99.65
2022-08-23T08:20:50.155Z,105.28
2022-08-23T08:23:36.250Z,114.68
2022-08-23T08:26:28.898Z,125.00
2022-08-23T08:28:57.527Z,107.53
2022-08-23T08:31:27.587Z,119.50
2022-08-23T08:33:55.499Z,117.65
2022-08-23T08:36:32.023Z,115.38
2022-08-23T08:39:00.828Z,102.60
2022-08-23T08:42:05.368Z,101.97
2022-08-23T08:44:42.166Z,121.90
2022-08-23T08:47:31.222Z,122.20
2022-08-23T08:50:20.232Z,112.70
2022-08-23T08:52:57.722Z,101.13
2022-08-23T08:55:59.390Z,103.78
2022-08-23T08:58:35.958Z,116.93
2022-08-23T09:01:03.067Z,131.30
2022-08-23T09:03:34.479Z,133.95
2022-08-23T09:06:28.568Z,124.90
2022-08-23T09:09:08.750Z,121.60
2022-08-23T09:12:07.121Z,117.15
2022-08-23T09:14:40.455Z,134.57
2022-08-23T09:17:21.575Z,135.98
2022-08-23T09:19:50.675Z,126.15
2022-08-23T09:22:28.296Z,134.35
2022-08-23T09:24:58.100Z,93.72
2022-08-23T09:27:30.881Z,68.82
2022-08-23T09:30:02.644Z,108.05
2022-08-23T09:32:30.876Z,87.20
2022-08-23T09:35:08.220Z,135.32
2022-08-23T09:37:47.415Z,122.72
2022-08-23T09:40:26.575Z,138.43
2022-08-23T09:43:08.191Z,121.20
2022-08-23T09:45:53.499Z,137.77
2022-08-23T09:48:33.355Z,135.43
2022-08-23T09:51:19.812Z,117.25
2022-08-23T09:53:50.699Z,136.23
2022-08-23T09:56:24.743Z,112.85
2022-08-23T09:58:54.024Z,147.30
2022-08-23T10:01:39.299Z,120.90
2022-08-23T10:04:16.488Z,128.90
2022-08-23T10:06:46.271Z,137.07
2022-08-23T10:09:26.530Z,110.47
2022-08-23T10:11:54.498Z,147.85
2022-08-23T10:14:24.288Z,140.73
2022-08-23T10:16:56.772Z,120.18
2022-08-23T10:19:40.531Z,124.10
2022-08-23T10:22:13.951Z,124.72
2022-08-23T10:24:48.028Z,138.77
2022-08-23T10:28:03.963Z,143.02
2022-08-23T10:30:39.634Z,156.10
2022-08-23T10:33:19.902Z,136.50
2022-08-23T10:35:54.960Z,148.77
2022-08-23T10:38:23.165Z,140.07
2022-08-23T10:41:37.601Z,139.55
2022-08-23T10:44:07.082Z,153.32
2022-08-23T10:46:41.766Z,159.30
2022-08-23T10:49:13.100Z,163.63
2022-08-23T10:51:43.913Z,140.35
2022-08-23T10:54:18.711Z,144.53
2022-08-23T10:56:50.854Z,155.65
2022-08-23T10:59:26.364Z,153.57
2022-08-23T11:02:32.411Z,153.15
2022-08-23T11:05:27.072Z,159.63
2022-08-23T11:08:05.053Z,165.27
2022-08-23T11:10:34.766Z,156.70
2022-08-23T11:13:25.769Z,151.73
2022-08-23T11:16:01.306Z,146.07
2022-08-23T11:18:34.380Z,156.27
2022-08-23T11:21:09.626Z,157.68
2022-08-23T11:23:44.847Z,61.17
2022-08-23T11:26:39.761Z,79.40
2022-08-23T11:29:09.632Z,140.43
2022-08-23T11:31:48.802Z,101.63
2022-08-23T11:34:51.461Z,73.90
2022-08-23T11:37:19.014Z,169.73
2022-08-23T11:39:58.448Z,169.03
2022-08-23T11:42:52.848Z,150.48
2022-08-23T11:45:46.638Z,160.50
2022-08-23T11:48:22.624Z,161.90
2022-08-23T11:50:59.568Z,146.23
2022-08-23T11:53:41.799Z,147.73
2022-08-23T11:56:23.655Z,171.57
2022-08-23T11:59:21.668Z,163.18
2022-08-23T12:01:50.758Z,165.32
2022-08-23T12:04:38.158Z,171.88
2022-08-23T12:07:12.724Z,158.38
2022-08-23T12:09:42.980Z,169.63
2022-08-23T12:12:34.787Z,158.90
2022-08-23T12:15:08.839Z,99.10
2022-08-23T12:17:40.476Z,90.90
2022-08-23T12:20:16.985Z,92.65
2022-08-23T12:23:04.643Z,103.45
2022-08-23T12:25:32.303Z,89.90
2022-08-23T12:28:29.889Z,93.47
2022-08-23T12:31:14.730Z,101.13
2022-08-23T12:34:02.290Z,88.85
2022-08-23T12:36:39.295Z,89.33
2022-08-23T12:39:09.218Z,95.38
2022-08-23T12:41:56.188Z,84.05
2022-08-23T12:44:26.840Z,28.27
2022-08-23T12:46:54.100Z,23.77
2022-08-23T12:49:26.175Z,34.20
2022-08-23T12:51:55.434Z,38.43
2022-08-23T12:54:33.115Z,18.13
2022-08-23T12:57:00.639Z,18.48
2022-08-23T12:59:34.534Z,19.35
2022-08-23T13:02:09.782Z,81.15
2022-08-23T13:04:39.862Z,85.35
2022-08-23T13:07:12.241Z,95.97
2022-08-23T13:09:41.870Z,104.55
2022-08-23T13:12:10.887Z,42.92
2022-08-23T13:14:43.198Z,105.55
2022-08-23T13:17:25.420Z,104.82
2022-08-23T13:20:01.387Z,114.20
2022-08-23T13:22:33.363Z,104.72
2022-08-23T13:25:31.934Z,116.75
2022-08-23T13:28:23.691Z,102.65
2022-08-23T13:31:08.020Z,111.38
2022-08-23T13:33:35.170Z,100.80
2022-08-23T13:36:31.991Z,104.38
2022-08-23T13:39:05.844Z,114.22
2022-08-23T13:41:38.743Z,106.77
2022-08-23T13:44:08.793Z,128.70
2022-08-23T13:46:45.083Z,105.20
2022-08-23T13:49:18.105Z,101.95
2022-08-23T13:52:38.008Z,97.85
2022-08-23T13:54:54.643Z,119.55
2022-08-23T13:57:22.187Z,64.82
2022-08-23T13:59:52.923Z,51.55
2022-08-23T14:02:22.361Z,64.55
2022-08-23T14:04:49.558Z,80.30
2022-08-23T14:07:16.722Z,66.38
2022-08-23T14:09:44.021Z,90.00
2022-08-23T14:12:17.852Z,111.32
2022-08-23T14:14:45.576Z,61.53
2022-08-23T14:17:16.598Z,114.90
2022-08-23T14:22:35.523Z,113.97
2022-08-23T14:25:02.527Z,104.57
2022-08-23T14:27:29.699Z,129.90
2022-08-23T14:29:56.483Z,127.82
2022-08-23T14:32:23.462Z,116.00
2022-08-23T14:34:50.326Z,121.38
2022-08-23T14:38:00.852Z,133.85
2022-08-23T14:40:05.263Z,106.43
2022-08-23T14:42:32.562Z,106.53
2022-08-23T14:44:59.899Z,109.67
2022-08-23T14:47:27.048Z,119.30
2022-08-23T14:49:54.470Z,119.03
2022-08-23T14:52:21.721Z,115.00
2022-08-23T14:54:49.864Z,77.85
2022-08-23T14:57:16.710Z,115.25
2022-08-23T14:59:43.624Z,122.22
2022-08-23T15:02:13.270Z,105.20
2022-08-23T15:04:41.646Z,125.90
2022-08-23T15:07:24.033Z,113.43
2022-08-23T15:09:54.647Z,108.45
2022-08-23T15:15:16.503Z,108.43
2022-08-23T15:17:53.379Z,114.43
2022-08-23T15:20:32.719Z,122.88
2022-08-23T15:23:00.539Z,119.90
2022-08-23T15:25:30.463Z,126.70
2022-08-23T15:27:58.462Z,114.72
2022-08-23T15:30:25.426Z,121.85
2022-08-23T15:33:02.464Z,122.93
2022-08-23T15:35:36.647Z,118.07
2022-08-23T15:38:06.286Z,125.82
2022-08-23T15:40:33.137Z,136.40
2022-08-23T15:43:00.179Z,132.80
2022-08-23T15:45:27.199Z,123.68
2022-08-23T15:47:56.802Z,140.77
2022-08-23T15:50:26.951Z,130.37
2022-08-23T15:52:53.898Z,64.68
2022-08-23T15:55:21.238Z,123.17
2022-08-23T15:57:50.906Z,111.78
2022-08-23T16:00:20.065Z,139.57
2022-08-23T16:03:15.911Z,66.13
2022-08-23T16:05:35.340Z,124.78
2022-08-23T16:08:02.166Z,128.05
2022-08-23T16:10:29.019Z,126.60
2022-08-23T16:12:56.126Z,130.25
2022-08-23T16:15:23.047Z,141.15
2022-08-23T16:17:49.894Z,136.55
2022-08-23T16:20:17.534Z,130.93
2022-08-23T16:22:44.813Z,113.13
2022-08-23T16:25:12.056Z,102.43
2022-08-23T16:27:38.997Z,134.47
2022-08-23T16:30:07.004Z,77.65
2022-08-23T16:32:33.730Z,55.55
2022-08-23T16:35:00.583Z,47.70
2022-08-23T16:37:27.387Z,49.93
2022-08-23T16:39:54.252Z,63.85
2022-08-23T16:42:21.224Z,117.43
2022-08-23T16:44:48.954Z,131.73
2022-08-23T16:47:16.907Z,138.63
2022-08-23T16:49:43.842Z,63.80
2022-08-23T16:52:11.690Z,141.50
2022-08-23T16:54:38.876Z,70.88
2022-08-23T16:57:06.810Z,57.53
2022-08-23T16:59:40.379Z,50.97
2022-08-23T17:02:10.793Z,56.88
2022-08-23T17:04:38.131Z,63.22
2022-08-23T17:07:05.075Z,58.70
2022-08-23T17:09:32.114Z,74.10
2022-08-23T17:11:59.240Z,116.67
2022-08-23T17:14:26.502Z,134.05
2022-08-23T17:16:53.470Z,137.60
2022-08-23T17:19:20.576Z,127.13
2022-08-23T17:21:47.440Z,87.77
2022-08-23T17:24:14.482Z,74.85
2022-08-23T17:26:41.684Z,84.40
2022-08-23T17:29:09.385Z,73.82
2022-08-23T17:31:37.814Z,46.65
2022-08-23T17:34:05.286Z,57.97
2022-08-23T17:36:47.858Z,60.33
2022-08-23T17:39:17.077Z,52.97
2022-08-23T17:41:45.546Z,51.00
2022-08-23T17:44:13.361Z,52.78
2022-08-23T17:46:43.369Z,63.35
2022-08-23T17:49:11.284Z,40.33
2022-08-23T17:51:40.471Z,51.13
2022-08-23T17:54:08.950Z,65.57
2022-08-23T17:56:37.042Z,56.97
2022-08-23T17:59:05.464Z,49.58
2022-08-23T18:01:33.397Z,48.63
2022-08-23T18:04:00.402Z,78.43
2022-08-23T18:06:27.370Z,62.40
2022-08-23T18:08:55.332Z,66.60
2022-08-23T18:11:22.806Z,60.97
2022-08-23T18:13:49.743Z,56.22
2022-08-23T18:16:17.085Z,64.18
2022-08-23T18:18:43.841Z,58.60
2022-08-23T18:21:14.146Z,67.13
2022-08-23T18:23:42.157Z,54.63
2022-08-23T18:26:46.635Z,77.93
2022-08-23T18:29:14.377Z,59.78
2022-08-23T18:31:43.382Z,61.47
2022-08-23T18:34:12.329Z,74.20
2022-08-23T18:36:39.572Z,76.07
2022-08-23T18:39:08.010Z,71.50
2022-08-23T18:41:35.319Z,51.10
2022-08-23T18:44:05.448Z,60.17
2022-08-23T18:46:37.463Z,73.47
2022-08-23T18:49:05.386Z,51.75
2022-08-23T18:51:32.407Z,70.68
2022-08-23T18:53:59.738Z,65.13
2022-08-23T18:56:26.684Z,57.85
2022-08-23T18:58:53.626Z,80.20
2022-08-23T19:01:46.927Z,62.35
2022-08-23T19:04:14.534Z,63.40
2022-08-23T19:06:42.096Z,53.67
2022-08-23T19:09:12.927Z,83.03
2022-08-23T19:11:40.585Z,59.55
2022-08-23T19:14:10.641Z,61.83
2022-08-23T19:16:38.260Z,53.72
2022-08-23T19:19:05.788Z,72.70
2022-08-23T19:21:33.690Z,46.92
2022-08-23T19:24:01.060Z,45.65
2022-08-23T19:26:32.576Z,65.57
2022-08-23T19:29:05.723Z,49.72
2022-08-23T19:31:36.229Z,45.22
2022-08-23T19:34:06.497Z,63.78
2022-08-23T19:36:46.395Z,51.00
2022-08-23T19:39:16.412Z,54.92
2022-08-23T19:41:43.757Z,56.10
2022-08-23T19:44:10.977Z,35.75
2022-08-23T19:46:41.904Z,38.78
2022-08-23T19:49:10.498Z,48.63
2022-08-23T19:51:38.156Z,55.50
2022-08-23T19:54:11.184Z,46.75
2022-08-23T19:56:43.236Z,127.05
2022-08-23T19:59:19.492Z,130.18
2022-08-23T20:01:50.935Z,147.43
2022-08-23T20:04:19.216Z,145.02
2022-08-23T20:06:46.711Z,154.43
2022-08-23T20:09:13.546Z,143.70
2022-08-23T20:11:41.373Z,158.77
2022-08-23T20:14:09.887Z,146.30
2022-08-23T20:16:40.726Z,162.15
2022-08-23T20:19:09.305Z,161.65
2022-08-23T20:21:36.529Z,174.25
2022-08-23T20:24:04.285Z,161.43
2022-08-23T20:26:38.986Z,166.10
2022-08-23T20:29:07.436Z,171.40
2022-08-23T20:31:39.455Z,169.52
2022-08-23T20:34:08.783Z,166.50
2022-08-23T20:36:36.101Z,175.63
2022-08-23T20:39:03.978Z,169.02
2022-08-23T20:41:34.956Z,187.45
2022-08-23T20:44:02.651Z,192.43
2022-08-23T20:46:29.886Z,174.02
2022-08-23T20:48:57.639Z,181.10
2022-08-23T20:51:27.344Z,185.40
2022-08-23T20:53:54.790Z,134.05
2022-08-23T20:56:23.454Z,124.57
2022-08-23T20:58:50.832Z,132.77
2022-08-23T21:01:18.368Z,126.50
2022-08-23T21:03:45.488Z,134.93
2022-08-23T21:06:20.002Z,188.73
2022-08-23T21:08:53.490Z,198.00
2022-08-23T21:11:21.775Z,190.90
2022-08-23T21:13:48.641Z,181.20
2022-08-23T21:16:16.954Z,159.17
2022-08-23T21:18:44.060Z,175.30
2022-08-23T21:21:11.680Z,198.73
2022-08-23T21:23:39.338Z,188.75
2022-08-23T21:26:07.378Z,182.50
2022-08-23T21:28:35.988Z,176.40
2022-08-23T21:31:09.106Z,185.75
2022-08-23T21:33:40.009Z,149.40
2022-08-23T21:36:08.875Z,182.18
2022-08-23T21:38:36.194Z,202.80
2022-08-23T21:41:05.496Z,193.00
2022-08-23T21:43:32.787Z,206.18
2022-08-23T21:45:59.815Z,201.90
2022-08-23T21:48:26.808Z,187.83
2022-08-23T21:50:54.023Z,186.73
2022-08-23T21:53:21.512Z,195.77
2022-08-23T21:55:48.327Z,202.27
2022-08-23T21:58:15.115Z,199.83
2022-08-23T22:00:42.362Z,199.40
2022-08-23T22:03:09.442Z,214.23
2022-08-23T22:05:40.947Z,182.57
2022-08-23T22:08:08.653Z,214.40
2022-08-23T22:10:37.840Z,217.60
2022-08-23T22:13:06.159Z,219.90
2022-08-23T22:15:33.600Z,237.45
2022-08-23T22:18:02.117Z,232.90
2022-08-23T22:20:31.476Z,216.93
2022-08-23T22:22:59.704Z,223.15
2022-08-23T22:25:27.267Z,227.30
2022-08-23T22:27:54.231Z,224.43
2022-08-23T22:30:21.621Z,233.35
2022-08-23T22:32:49.800Z,209.93
2022-08-23T22:35:16.684Z,213.30
2022-08-23T22:38:03.634Z,214.73
2022-08-23T22:40:31.491Z,240.13
2022-08-23T22:42:58.222Z,248.80
2022-08-23T22:45:25.071Z,236.85
2022-08-23T22:47:51.905Z,214.48
2022-08-23T22:50:18.770Z,249.10
2022-08-23T22:52:45.569Z,249.27
2022-08-23T22:55:12.376Z,252.52
2022-08-23T22:57:39.351Z,256.40
2022-08-23T23:00:10.877Z,267.50
2022-08-23T23:02:38.830Z,283.02
2022-08-23T23:05:07.097Z,287.23
2022-08-23T23:07:52.431Z,266.42
2022-08-23T23:10:19.409Z,283.00
2022-08-23T23:12:46.352Z,280.98
2022-08-23T23:15:13.564Z,281.42
2022-08-23T23:17:40.383Z,267.15
2022-08-23T23:20:26.315Z,281.05
2022-08-23T23:22:53.245Z,286.48
2022-08-23T23:25:20.179Z,289.67
2022-08-23T23:27:46.929Z,287.88
2022-08-23T23:30:14.282Z,308.55
2022-08-23T23:32:41.365Z,309.88
2022-08-23T23:35:10.541Z,311.25
2022-08-23T23:37:37.607Z,318.27
2022-08-23T23:40:05.959Z,316.85
2022-08-23T23:42:32.887Z,315.40
2022-08-23T23:44:59.703Z,352.27
2022-08-23T23:47:26.795Z,366.20
2022-08-23T23:49:53.694Z,350.55
2022-08-23T23:52:20.507Z,374.20
2022-08-23T23:54:47.316Z,411.53
2022-08-23T23:57:14.244Z,393.05
2022-08-23T23:59:41.199Z,449.67
